Time;durP1;ratioP1;P1;durP2;ratioP2;P2;SDS_P1;SDS_P2;PMS_P1;PMS_P2;Temp;Humidity;BMP_temperature;BMP_pressure;BME280_temperature;BME280_humidity;BME280_pressure;Samples;Min_cycle;Max_cycle;Signal;HPM_P1;HPM_P2
2022/03/24 00:02:16;;;;;;;24.60;19.38;;;7.90;1.00;;;;;;5052321;28;20032;-90
2022/03/24 00:04:42;;;;;;;25.92;19.63;;;8.00;1.00;;;;;;5054006;28;20021;-90
2022/03/24 00:07:07;;;;;;;25.45;19.38;;;7.90;1.00;;;;;;5053084;28;20025;-90
2022/03/24 00:09:33;;;;;;;29.20;20.75;;;8.10;1.00;;;;;;5052961;28;20622;-90
2022/03/24 00:11:59;;;;;;;26.50;19.98;;;8.10;1.00;;;;;;5052615;28;20072;-90
2022/03/24 00:14:25;;;;;;;29.17;19.83;;;8.20;1.00;;;;;;5053790;28;20033;-90
2022/03/24 00:16:51;;;;;;;30.15;20.75;;;8.30;1.00;;;;;;5052112;28;20032;-90
2022/03/24 00:19:17;;;;;;;28.45;20.70;;;8.20;1.00;;;;;;5052949;28;20032;-90
2022/03/24 00:21:46;;;;;;;31.85;21.73;;;8.30;1.00;;;;;;5051729;28;20432;-90
2022/03/24 00:24:13;;;;;;;28.80;21.75;;;8.50;1.00;;;;;;5052053;28;20032;-90
2022/03/24 00:26:39;;;;;;;28.02;20.65;;;8.50;1.00;;;;;;5054113;28;20025;-90
2022/03/24 00:29:05;;;;;;;25.83;20.15;;;8.60;1.00;;;;;;5050555;28;20085;-90
2022/03/24 00:31:31;;;;;;;31.05;21.70;;;8.60;1.00;;;;;;5045654;28;20028;-90
2022/03/24 00:33:57;;;;;;;28.48;20.83;;;8.90;1.00;;;;;;5050963;28;20044;-90
2022/03/24 00:36:23;;;;;;;28.30;21.40;;;8.70;1.00;;;;;;5049500;28;20086;-90
2022/03/24 00:38:52;;;;;;;27.67;21.25;;;8.80;1.00;;;;;;5035180;28;20048;-90
2022/03/24 00:41:19;;;;;;;26.90;20.98;;;8.60;1.00;;;;;;5052937;28;20102;-90
2022/03/24 00:43:46;;;;;;;27.23;21.17;;;8.60;1.00;;;;;;5050943;28;20033;-90
2022/03/24 00:46:12;;;;;;;29.17;20.30;;;8.40;1.00;;;;;;5052788;28;20021;-90
2022/03/24 00:48:37;;;;;;;27.75;20.15;;;8.40;1.00;;;;;;5049062;28;20032;-91
2022/03/24 00:51:05;;;;;;;26.52;20.50;;;8.20;1.00;;;;;;5051289;28;20444;-90
2022/03/24 00:53:30;;;;;;;26.02;20.63;;;8.20;1.00;;;;;;5053262;28;20029;-90
2022/03/24 00:55:56;;;;;;;26.17;20.25;;;8.30;1.00;;;;;;5050469;28;20063;-90
2022/03/24 00:58:22;;;;;;;26.65;20.30;;;8.10;1.00;;;;;;5050947;28;20040;-89
2022/03/24 01:00:48;;;;;;;27.25;20.63;;;8.10;1.00;;;;;;5052133;28;20444;-91
2022/03/24 01:03:13;;;;;;;25.42;20.45;;;8.60;1.00;;;;;;5048893;28;20032;-90
2022/03/24 01:05:39;;;;;;;27.95;20.35;;;8.10;1.00;;;;;;5052178;28;20021;-91
2022/03/24 01:08:08;;;;;;;25.27;20.02;;;8.40;1.00;;;;;;5051465;28;20033;-90
2022/03/24 01:10:35;;;;;;;24.02;19.33;;;8.60;1.00;;;;;;5050453;28;20036;-90
2022/03/24 01:13:00;;;;;;;25.25;19.58;;;8.60;1.00;;;;;;5051695;28;20035;-91
2022/03/24 01:15:28;;;;;;;25.63;19.73;;;8.40;1.00;;;;;;5051342;28;20035;-90
2022/03/24 01:17:55;;;;;;;23.08;18.35;;;8.20;1.00;;;;;;5050978;28;20037;-90
2022/03/24 01:20:21;;;;;;;25.33;17.67;;;8.10;1.00;;;;;;5052472;28;20021;-90
2022/03/24 01:22:47;;;;;;;22.75;17.83;;;8.40;1.00;;;;;;5046061;28;20025;-90
2022/03/24 01:25:12;;;;;;;26.65;18.02;;;7.90;1.00;;;;;;5053582;28;20029;-90
2022/03/24 01:27:38;;;;;;;26.02;18.80;;;8.10;1.00;;;;;;5048923;28;20029;-91
2022/03/24 01:30:08;;;;;;;24.25;18.88;;;7.90;1.00;;;;;;5050649;28;20028;-90
2022/03/24 01:32:34;;;;;;;24.45;19.23;;;7.70;1.00;;;;;;5049459;28;20045;-91
2022/03/24 01:35:01;;;;;;;25.00;19.23;;;7.60;1.00;;;;;;5049293;28;20489;-90
2022/03/24 01:37:27;;;;;;;23.95;18.77;;;7.80;1.00;;;;;;5051135;28;20076;-90
2022/03/24 01:39:53;;;;;;;24.45;18.23;;;7.40;1.00;;;;;;5049837;28;20438;-91
2022/03/24 01:42:20;;;;;;;26.30;19.38;;;7.50;1.00;;;;;;5051254;28;20035;-90
2022/03/24 01:44:46;;;;;;;23.95;19.60;;;7.40;1.00;;;;;;5052511;28;20100;-90
2022/03/24 01:47:12;;;;;;;26.27;19.02;;;7.50;1.00;;;;;;5052804;28;20039;-90
2022/03/24 01:49:40;;;;;;;25.77;18.67;;;7.30;1.00;;;;;;5050039;28;20025;-90
2022/03/24 01:52:08;;;;;;;27.38;19.73;;;7.40;1.00;;;;;;5048261;28;20029;-91
2022/03/24 01:54:36;;;;;;;27.33;19.33;;;7.20;1.00;;;;;;5051742;28;20071;-90
2022/03/24 01:57:03;;;;;;;25.48;20.08;;;7.20;1.00;;;;;;5050166;28;20025;-91
2022/03/24 01:59:29;;;;;;;28.65;19.98;;;7.20;1.00;;;;;;5053212;28;20113;-90
2022/03/24 02:01:55;;;;;;;27.00;19.50;;;7.30;1.00;;;;;;5051275;28;20064;-91
2022/03/24 02:04:21;;;;;;;22.42;18.50;;;7.10;1.00;;;;;;5050274;28;20075;-90
2022/03/24 02:06:48;;;;;;;23.55;17.60;;;6.80;1.00;;;;;;5048449;28;20021;-91
2022/03/24 02:09:14;;;;;;;25.73;18.30;;;6.80;1.00;;;;;;5050893;28;20091;-91
2022/03/24 02:11:40;;;;;;;20.83;17.13;;;7.10;1.00;;;;;;5051111;28;20044;-90
2022/03/24 02:14:06;;;;;;;22.45;17.75;;;6.80;1.00;;;;;;5049890;28;20145;-90
2022/03/24 02:16:38;;;;;;;30.77;18.98;;;6.80;1.00;;;;;;5058129;28;20509;-92
2022/03/24 02:19:21;;;;;;;26.80;19.27;;;6.80;1.00;;;;;;5053794;28;20037;-90
2022/03/24 02:21:48;;;;;;;28.75;19.73;;;6.90;1.00;;;;;;5054391;28;20381;-90
2022/03/24 02:24:16;;;;;;;24.60;19.42;;;6.90;1.00;;;;;;5049451;28;20041;-91
2022/03/24 02:26:44;;;;;;;26.23;19.52;;;6.90;1.00;;;;;;5051347;28;20489;-90
2022/03/24 02:29:11;;;;;;;26.20;19.02;;;7.10;1.00;;;;;;5052114;28;20375;-91
2022/03/24 02:31:40;;;;;;;28.45;20.10;;;7.00;1.00;;;;;;5051346;28;20075;-91
2022/03/24 02:36:59;;;;;;;25.38;20.08;;;7.10;1.00;;;;;;5051004;28;20044;-90
2022/03/24 02:39:26;;;;;;;25.75;19.13;;;7.30;1.00;;;;;;5047684;28;20494;-90
2022/03/24 02:41:54;;;;;;;24.48;19.13;;;7.00;1.00;;;;;;5051375;28;20126;-91
2022/03/24 02:44:22;;;;;;;22.98;18.45;;;7.20;1.00;;;;;;5064277;28;20033;-90
2022/03/24 02:46:49;;;;;;;26.25;18.90;;;7.30;1.00;;;;;;5049449;28;20053;-91
2022/03/24 02:49:19;;;;;;;30.75;18.48;;;6.90;1.00;;;;;;5049259;28;20017;-90
2022/03/24 02:51:46;;;;;;;27.20;19.45;;;6.90;1.00;;;;;;5050913;28;20017;-90
2022/03/24 02:54:13;;;;;;;23.48;18.50;;;7.00;1.00;;;;;;5048705;28;20025;-90
2022/03/24 02:56:42;;;;;;;28.08;19.35;;;7.30;1.00;;;;;;5051546;28;20044;-90
2022/03/24 02:59:09;;;;;;;24.85;19.40;;;7.30;1.00;;;;;;5049966;28;20048;-90
2022/03/24 03:01:36;;;;;;;25.08;20.20;;;7.00;1.00;;;;;;5049475;28;20017;-90
2022/03/24 03:04:02;;;;;;;29.23;19.65;;;7.00;1.00;;;;;;5050246;28;20040;-90
2022/03/24 03:06:27;;;;;;;28.38;20.02;;;7.00;1.00;;;;;;5048345;28;20025;-91
2022/03/24 03:08:53;;;;;;;29.55;20.65;;;6.90;1.00;;;;;;5049959;28;20063;-91
2022/03/24 03:11:23;;;;;;;29.35;19.85;;;7.00;1.00;;;;;;5051025;28;20086;-91
2022/03/24 03:13:49;;;;;;;29.40;19.58;;;6.90;1.00;;;;;;5049633;28;20025;-90
2022/03/24 03:16:15;;;;;;;23.15;19.17;;;6.90;1.00;;;;;;5050279;28;20025;-91
2022/03/24 03:18:42;;;;;;;27.30;19.10;;;6.90;1.00;;;;;;5048008;28;20057;-91
2022/03/24 03:21:11;;;;;;;27.52;19.00;;;7.20;1.00;;;;;;5050492;28;20033;-91
2022/03/24 03:23:38;;;;;;;31.38;20.00;;;6.60;1.00;;;;;;5052245;28;20124;-90
2022/03/24 03:26:07;;;;;;;24.98;19.95;;;6.50;1.00;;;;;;5049471;28;20431;-91
2022/03/24 03:28:34;;;;;;;27.30;20.20;;;6.40;1.00;;;;;;5053790;28;20047;-90
2022/03/24 03:31:00;;;;;;;27.77;20.10;;;6.60;1.00;;;;;;5047939;28;20028;-91
2022/03/24 03:33:25;;;;;;;26.52;19.15;;;6.20;1.00;;;;;;5052155;28;20232;-90
2022/03/24 03:35:54;;;;;;;27.23;20.08;;;6.30;1.00;;;;;;5054511;28;20109;-91
2022/03/24 03:38:20;;;;;;;24.80;19.73;;;6.20;1.00;;;;;;5054502;28;20063;-90
2022/03/24 03:40:47;;;;;;;25.85;18.58;;;6.30;1.00;;;;;;5053985;28;20040;-91
2022/03/24 03:43:14;;;;;;;26.35;19.23;;;6.00;1.00;;;;;;5053694;28;20100;-90
2022/03/24 03:45:41;;;;;;;29.73;20.00;;;6.00;1.00;;;;;;5052115;28;20163;-91
2022/03/24 03:48:07;;;;;;;26.98;18.90;;;6.00;1.00;;;;;;5053968;28;20026;-91
2022/03/24 03:50:33;;;;;;;25.95;19.83;;;6.40;1.00;;;;;;5051384;28;20481;-91
2022/03/24 03:52:59;;;;;;;29.17;20.25;;;6.10;1.00;;;;;;5052461;28;20071;-91
2022/03/24 03:55:24;;;;;;;26.30;20.75;;;6.10;1.00;;;;;;5052185;28;20028;-91
2022/03/24 03:57:50;;;;;;;31.05;20.33;;;6.30;1.00;;;;;;5050172;28;20047;-90
2022/03/24 04:03:03;;;;;;;27.75;19.70;;;6.40;1.00;;;;;;5053965;28;20049;-91
2022/03/24 04:05:30;;;;;;;26.00;19.30;;;6.40;1.00;;;;;;5055496;28;20013;-90
2022/03/24 04:07:56;;;;;;;23.70;18.45;;;6.30;1.00;;;;;;5052029;28;20037;-91
2022/03/24 04:10:22;;;;;;;28.20;19.98;;;6.40;1.00;;;;;;5051133;28;20370;-90
2022/03/24 04:12:50;;;;;;;24.83;19.10;;;6.30;1.00;;;;;;5051822;28;20029;-90
2022/03/24 04:15:16;;;;;;;28.20;19.95;;;6.40;1.00;;;;;;5049256;28;20025;-91
2022/03/24 04:17:42;;;;;;;27.48;19.65;;;6.60;1.00;;;;;;5050807;28;20029;-90
2022/03/24 04:20:08;;;;;;;24.52;19.50;;;6.50;1.00;;;;;;5053641;28;20108;-91
2022/03/24 04:22:35;;;;;;;27.50;19.30;;;6.40;1.00;;;;;;5052349;28;20024;-91
2022/03/24 04:25:01;;;;;;;26.70;19.73;;;6.70;1.00;;;;;;5052222;28;20025;-91
2022/03/24 04:27:27;;;;;;;24.42;18.88;;;6.70;1.00;;;;;;5051839;28;20021;-91
2022/03/24 04:29:53;;;;;;;25.85;19.75;;;6.50;1.00;;;;;;5052052;28;20093;-91
2022/03/24 04:32:18;;;;;;;26.52;19.35;;;6.50;1.00;;;;;;5053095;28;20491;-91
2022/03/24 04:34:45;;;;;;;25.98;19.58;;;6.40;1.00;;;;;;5051269;28;20116;-91
2022/03/24 04:37:11;;;;;;;26.02;19.67;;;6.30;1.00;;;;;;5050828;28;20052;-91
2022/03/24 04:39:37;;;;;;;23.25;18.13;;;6.30;1.00;;;;;;5052337;28;20033;-91
2022/03/24 04:42:06;;;;;;;23.65;18.95;;;6.30;1.00;;;;;;5051923;28;20028;-91
2022/03/24 04:44:32;;;;;;;24.85;18.83;;;6.10;1.00;;;;;;5050436;28;20029;-91
2022/03/24 04:46:58;;;;;;;26.08;19.25;;;6.10;1.00;;;;;;5052112;28;20029;-91
2022/03/24 04:49:24;;;;;;;27.15;19.52;;;6.40;1.00;;;;;;5053020;28;20032;-91
2022/03/24 04:51:50;;;;;;;30.83;20.88;;;6.20;1.00;;;;;;5050859;28;20028;-90
2022/03/24 04:54:15;;;;;;;26.67;18.08;;;6.10;1.00;;;;;;5051515;28;20057;-91
2022/03/24 04:56:44;;;;;;;26.88;19.25;;;6.20;1.00;;;;;;5052493;28;20057;-92
2022/03/24 04:59:10;;;;;;;26.20;19.08;;;6.30;1.00;;;;;;5053903;28;20037;-91
2022/03/24 05:01:35;;;;;;;26.40;19.02;;;6.10;1.00;;;;;;5050194;28;20394;-91
2022/03/24 05:04:01;;;;;;;25.27;18.50;;;6.00;1.00;;;;;;5051702;28;20090;-91
2022/03/24 05:06:27;;;;;;;25.90;18.85;;;6.00;1.00;;;;;;5051506;28;20025;-91
2022/03/24 05:08:52;;;;;;;22.48;18.75;;;6.00;1.00;;;;;;5051024;28;20033;-91
2022/03/24 05:11:18;;;;;;;25.88;19.50;;;5.80;1.00;;;;;;5051538;28;20025;-91
2022/03/24 05:13:45;;;;;;;24.67;18.58;;;5.90;1.00;;;;;;5050942;28;20121;-91
2022/03/24 05:16:11;;;;;;;25.05;16.48;;;6.00;1.00;;;;;;5052036;28;20070;-91
2022/03/24 05:18:38;;;;;;;24.80;17.73;;;5.80;1.00;;;;;;5052341;28;20040;-91
2022/03/24 05:21:04;;;;;;;28.08;17.80;;;5.70;1.00;;;;;;5050967;28;20088;-91
2022/03/24 05:23:30;;;;;;;29.77;17.70;;;5.40;1.00;;;;;;5052873;28;20120;-91
2022/03/24 05:25:56;;;;;;;25.05;18.50;;;5.70;1.00;;;;;;5046540;28;20040;-91
2022/03/24 05:28:22;;;;;;;26.40;18.00;;;5.30;1.00;;;;;;5049304;28;20029;-91
2022/03/24 05:30:48;;;;;;;25.45;18.58;;;5.70;1.00;;;;;;5050684;28;20021;-91
2022/03/24 05:33:14;;;;;;;23.73;17.92;;;5.60;1.00;;;;;;5048776;28;20424;-91
2022/03/24 05:35:40;;;;;;;29.38;18.98;;;5.40;1.00;;;;;;5053190;28;20028;-91
2022/03/24 05:38:06;;;;;;;26.63;18.48;;;5.40;1.00;;;;;;5052170;28;20460;-91
2022/03/24 05:40:32;;;;;;;24.42;17.92;;;5.50;1.00;;;;;;5053862;28;20482;-91
2022/03/24 05:42:58;;;;;;;25.88;18.35;;;5.40;1.00;;;;;;5049126;28;20140;-91
2022/03/24 05:45:24;;;;;;;24.88;18.08;;;5.60;1.00;;;;;;5048102;28;20099;-91
2022/03/24 05:47:49;;;;;;;28.88;18.65;;;5.40;1.00;;;;;;5049907;28;20359;-90
2022/03/24 05:50:15;;;;;;;26.08;17.77;;;5.50;1.00;;;;;;5046107;28;20025;-95
2022/03/24 05:52:41;;;;;;;29.25;18.60;;;5.20;1.00;;;;;;5049838;28;20397;-94
2022/03/24 05:55:08;;;;;;;24.05;18.38;;;5.20;1.00;;;;;;5049949;28;20032;-94
2022/03/24 05:57:34;;;;;;;26.50;18.75;;;5.20;1.00;;;;;;5052377;28;20033;-94
2022/03/24 06:00:01;;;;;;;31.13;20.35;;;5.20;1.00;;;;;;5053148;28;20165;-92
2022/03/24 06:02:27;;;;;;;28.90;21.38;;;5.30;1.00;;;;;;5051938;28;20441;-94
2022/03/24 06:04:54;;;;;;;38.28;22.80;;;5.30;1.00;;;;;;5050369;28;20064;-94
2022/03/24 06:07:19;;;;;;;27.90;20.60;;;5.60;1.00;;;;;;5049509;28;20047;-96
2022/03/24 06:09:46;;;;;;;27.48;20.90;;;5.50;1.00;;;;;;5051120;28;20625;-93
2022/03/24 06:12:13;;;;;;;33.97;20.25;;;5.70;1.00;;;;;;5051497;28;20029;-94
2022/03/24 06:14:40;;;;;;;30.38;19.35;;;5.50;1.00;;;;;;5052602;28;20029;-94
2022/03/24 06:17:06;;;;;;;27.50;18.83;;;6.00;1.00;;;;;;5049764;28;20037;-92
2022/03/24 06:19:35;;;;;;;23.60;17.98;;;6.40;1.00;;;;;;5050958;28;20084;-93
2022/03/24 06:22:01;;;;;;;28.25;17.40;;;6.30;1.00;;;;;;5049148;28;20036;-94
2022/03/24 06:24:27;;;;;;;25.92;17.30;;;6.20;1.00;;;;;;5047773;28;20028;-93
2022/03/24 06:26:53;;;;;;;26.02;16.75;;;6.30;1.00;;;;;;5050744;28;20362;-90
2022/03/24 06:29:19;;;;;;;23.67;17.23;;;6.10;1.00;;;;;;5050100;28;20021;-83
2022/03/24 06:31:45;;;;;;;26.08;16.90;;;6.80;1.00;;;;;;5048801;28;20037;-85
2022/03/24 06:34:11;;;;;;;28.27;17.23;;;7.30;1.00;;;;;;5049422;28;20029;-85
2022/03/24 06:36:37;;;;;;;24.95;17.08;;;7.30;1.00;;;;;;5048604;28;20629;-81
2022/03/24 06:39:03;;;;;;;22.88;17.60;;;7.10;1.00;;;;;;5049107;28;20116;-82
2022/03/24 06:41:29;;;;;;;29.35;18.08;;;7.00;1.00;;;;;;5051472;28;20025;-83
2022/03/24 06:43:59;;;;;;;27.55;17.08;;;7.20;1.00;;;;;;5047582;28;20473;-81
2022/03/24 06:46:28;;;;;;;26.17;17.75;;;7.20;1.00;;;;;;5047419;28;20543;-81
2022/03/24 06:48:54;;;;;;;29.70;18.10;;;7.50;1.00;;;;;;5049602;28;20029;-81
2022/03/24 06:51:20;;;;;;;25.10;17.13;;;7.60;1.00;;;;;;5049324;28;20029;-82
2022/03/24 06:53:46;;;;;;;28.83;17.52;;;7.60;1.00;;;;;;5050480;28;20037;-82
2022/03/24 06:56:12;;;;;;;25.45;17.52;;;7.50;1.00;;;;;;5050579;28;20035;-81
2022/03/24 06:58:37;;;;;;;27.90;17.45;;;7.60;1.00;;;;;;5048847;28;20043;-82
2022/03/24 07:01:03;;;;;;;24.10;17.30;;;7.70;1.00;;;;;;5050998;28;20338;-82
2022/03/24 07:03:30;;;;;;;21.73;16.73;;;7.90;1.00;;;;;;5053502;28;20041;-82
2022/03/24 07:05:56;;;;;;;27.77;17.67;;;7.90;1.00;;;;;;5053130;28;20032;-82
2022/03/24 07:08:26;;;;;;;22.15;15.48;;;8.10;1.00;;;;;;5055440;28;20021;-82
2022/03/24 07:10:52;;;;;;;24.00;16.83;;;8.20;1.00;;;;;;5052912;28;20025;-82
2022/03/24 07:13:18;;;;;;;25.00;15.65;;;8.30;1.00;;;;;;5053293;28;20021;-81
2022/03/24 07:15:44;;;;;;;22.77;15.52;;;8.40;1.00;;;;;;5052250;28;20025;-81
2022/03/24 07:18:10;;;;;;;23.00;16.63;;;8.40;1.00;;;;;;5053122;28;20037;-81
2022/03/24 07:20:39;;;;;;;22.55;15.55;;;8.60;1.00;;;;;;5054834;28;20033;-82
2022/03/24 07:23:06;;;;;;;29.75;16.13;;;8.70;1.00;;;;;;5053331;28;20134;-82
2022/03/24 07:25:32;;;;;;;27.67;16.45;;;9.10;1.00;;;;;;5051205;28;20452;-82
2022/03/24 07:27:59;;;;;;;29.42;16.98;;;8.80;1.00;;;;;;5052561;28;20468;-82
2022/03/24 07:30:26;;;;;;;25.73;17.42;;;9.00;1.00;;;;;;5052420;28;20496;-82
2022/03/24 07:32:54;;;;;;;25.83;17.70;;;9.10;1.00;;;;;;5053291;28;20048;-82
2022/03/24 07:35:24;;;;;;;25.05;17.50;;;9.10;1.00;;;;;;5052709;28;20071;-82
2022/03/24 07:37:50;;;;;;;25.65;17.83;;;9.10;1.00;;;;;;5052333;28;20102;-82
2022/03/24 07:40:18;;;;;;;22.90;17.10;;;9.20;1.00;;;;;;5052765;28;20367;-82
2022/03/24 07:42:49;;;;;;;22.08;17.33;;;9.30;1.00;;;;;;5052368;28;20025;-82
2022/03/24 07:45:15;;;;;;;29.70;17.38;;;9.40;1.00;;;;;;5051218;28;20025;-81
2022/03/24 07:48:05;;;;;;;21.60;16.85;;;9.40;1.00;;;;;;5054093;28;20033;-81
2022/03/24 07:50:31;;;;;;;22.38;15.45;;;9.40;1.00;;;;;;5054415;28;20033;-82
2022/03/24 07:53:16;;;;;;;26.75;16.10;;;9.50;1.00;;;;;;5052149;28;20021;-81
2022/03/24 07:55:46;;;;;;;23.00;16.65;;;9.60;1.00;;;;;;5052058;28;20033;-82
2022/03/24 07:58:12;;;;;;;25.52;16.55;;;9.90;1.00;;;;;;5052433;28;20552;-81
2022/03/24 08:00:39;;;;;;;28.85;16.55;;;10.00;1.00;;;;;;5050845;28;20021;-82
2022/03/24 08:03:16;;;;;;;23.35;16.02;;;10.10;1.00;;;;;;5051516;28;20448;-82
2022/03/24 08:05:44;;;;;;;18.15;15.18;;;10.10;1.00;;;;;;5050445;28;20021;-82
2022/03/24 08:08:10;;;;;;;25.48;15.75;;;10.20;1.00;;;;;;5052954;28;20033;-81
2022/03/24 08:10:40;;;;;;;20.70;15.15;;;10.30;1.00;;;;;;5051928;28;20481;-82
2022/03/24 08:13:06;;;;;;;22.13;16.25;;;10.40;1.00;;;;;;5050691;28;20531;-82
2022/03/24 08:15:35;;;;;;;22.83;16.50;;;10.50;1.00;;;;;;5052109;28;20025;-82
2022/03/24 08:18:01;;;;;;;25.27;17.08;;;10.60;1.00;;;;;;5052314;28;20049;-82
2022/03/24 08:20:26;;;;;;;26.83;17.58;;;10.60;1.00;;;;;;5054070;28;20852;-82
2022/03/24 08:22:52;;;;;;;24.42;18.20;;;10.70;1.00;;;;;;5051566;28;20031;-81
2022/03/24 08:25:19;;;;;;;26.13;18.30;;;10.80;1.00;;;;;;5051525;28;20552;-82
2022/03/24 08:27:45;;;;;;;25.70;17.58;;;11.10;1.00;;;;;;5051644;28;20025;-81
2022/03/24 08:30:12;;;;;;;23.30;16.70;;;10.90;1.00;;;;;;5051769;28;20030;-82
2022/03/24 08:32:39;;;;;;;27.92;19.08;;;11.10;1.00;;;;;;5053217;28;20040;-82
2022/03/24 08:35:05;;;;;;;24.75;20.17;;;11.60;1.00;;;;;;5052125;28;20040;-82
2022/03/24 08:37:31;;;;;;;23.13;19.85;;;11.40;1.00;;;;;;5051709;28;20029;-82
2022/03/24 08:39:56;;;;;;;25.55;19.98;;;11.40;1.00;;;;;;5049950;28;20048;-82
2022/03/24 08:42:23;;;;;;;29.50;20.35;;;11.40;1.00;;;;;;5049611;28;20018;-82
2022/03/24 08:44:49;;;;;;;31.48;20.35;;;11.40;1.00;;;;;;5052059;28;20032;-82
2022/03/24 08:47:15;;;;;;;31.85;19.23;;;11.50;1.00;;;;;;5052871;28;20032;-82
2022/03/24 08:49:41;;;;;;;25.35;18.25;;;11.50;1.00;;;;;;5051097;28;20390;-82
2022/03/24 08:52:07;;;;;;;23.58;18.00;;;11.60;1.00;;;;;;5051690;28;20025;-82
2022/03/24 08:54:33;;;;;;;27.75;20.10;;;11.80;1.00;;;;;;5050690;28;20021;-82
2022/03/24 08:56:58;;;;;;;25.30;18.45;;;11.80;1.00;;;;;;5050860;28;20383;-83
2022/03/24 08:59:24;;;;;;;32.53;19.40;;;11.90;1.00;;;;;;5052985;28;20112;-82
2022/03/24 09:01:50;;;;;;;28.80;18.20;;;12.00;1.00;;;;;;5051301;28;20469;-82
2022/03/24 09:04:17;;;;;;;26.27;18.73;;;12.10;1.00;;;;;;5051225;28;20513;-82
2022/03/24 09:06:42;;;;;;;30.38;19.30;;;12.20;1.00;;;;;;5050514;28;20013;-83
2022/03/24 09:09:08;;;;;;;23.60;18.30;;;12.30;1.00;;;;;;5051753;28;20087;-82
2022/03/24 09:11:33;;;;;;;22.15;18.83;;;12.40;1.00;;;;;;5052504;28;20078;-82
2022/03/24 09:13:59;;;;;;;27.75;18.50;;;12.60;1.00;;;;;;5050530;28;20025;-82
2022/03/24 09:16:25;;;;;;;22.40;17.02;;;12.70;1.00;;;;;;5051150;28;20558;-83
2022/03/24 09:18:50;;;;;;;23.67;17.77;;;12.80;1.00;;;;;;5049149;28;20108;-82
2022/03/24 09:21:19;;;;;;;21.33;15.93;;;12.90;1.00;;;;;;5049080;28;20523;-82
2022/03/24 09:23:45;;;;;;;22.77;16.45;;;13.00;1.00;;;;;;5050727;28;20036;-83
2022/03/24 09:26:12;;;;;;;24.40;16.73;;;13.20;1.00;;;;;;5051204;28;20020;-83
2022/03/24 09:28:38;;;;;;;22.30;16.38;;;13.50;1.00;;;;;;5050232;28;20120;-83
2022/03/24 09:31:04;;;;;;;23.40;16.35;;;14.00;1.00;;;;;;5050833;28;20017;-82
2022/03/24 09:33:30;;;;;;;21.67;16.40;;;16.10;1.00;;;;;;5050126;28;20048;-83
2022/03/24 09:35:55;;;;;;;20.63;17.70;;;17.90;1.00;;;;;;5050030;28;20021;-83
2022/03/24 09:38:21;;;;;;;22.75;16.73;;;18.60;1.00;;;;;;5052504;28;20045;-83
2022/03/24 09:40:47;;;;;;;21.88;17.20;;;19.10;1.00;;;;;;5049910;28;20017;-83
2022/03/24 09:43:13;;;;;;;18.10;15.85;;;19.90;1.00;;;;;;5050423;28;20021;-83
2022/03/24 09:45:41;;;;;;;20.52;17.05;;;20.70;1.00;;;;;;5050119;28;20021;-83
2022/03/24 09:48:07;;;;;;;20.88;17.83;;;21.30;1.00;;;;;;5034372;28;20083;-83
2022/03/24 09:50:36;;;;;;;20.95;17.98;;;21.10;1.00;;;;;;5052562;28;20424;-83
2022/03/24 09:53:03;;;;;;;20.85;17.38;;;21.40;1.00;;;;;;5050031;28;20029;-83
2022/03/24 09:55:32;;;;;;;22.65;17.40;;;22.20;1.00;;;;;;5049373;28;20017;-83
2022/03/24 09:57:59;;;;;;;19.02;17.02;;;22.70;1.00;;;;;;5048197;28;20037;-83
2022/03/24 10:00:25;;;;;;;23.08;17.42;;;23.10;1.00;;;;;;5048574;28;20033;-83
2022/03/24 10:03:26;;;;;;;21.08;18.30;;;23.10;1.00;;;;;;5050689;28;20640;-83
2022/03/24 10:05:59;;;;;;;20.38;17.95;;;23.40;1.00;;;;;;5042049;28;20033;-83
2022/03/24 10:08:27;;;;;;;23.17;17.73;;;23.60;1.00;;;;;;5034467;28;20036;-83
2022/03/24 10:11:01;;;;;;;20.25;18.08;;;23.70;1.00;;;;;;5032020;28;20569;-83
2022/03/24 10:13:43;;;;;;;20.73;18.02;;;23.90;1.00;;;;;;5032297;28;20425;-83
2022/03/24 10:16:10;;;;;;;19.33;17.42;;;24.10;99.90;;;;;;5032380;28;20026;-83
2022/03/24 10:18:36;;;;;;;19.42;17.30;;;24.30;99.90;;;;;;5031235;28;20147;-83
2022/03/24 10:21:05;;;;;;;20.60;17.27;;;24.60;99.90;;;;;;5028657;28;20041;-84
2022/03/24 10:23:43;;;;;;;18.50;16.75;;;24.90;99.90;;;;;;5033494;28;20029;-83
2022/03/24 10:26:08;;;;;;;18.67;16.67;;;24.70;99.90;;;;;;5031314;28;20104;-83
2022/03/24 10:28:34;;;;;;;21.63;16.80;;;24.80;99.90;;;;;;5031797;28;20618;-83
2022/03/24 10:31:02;;;;;;;19.50;17.02;;;25.20;99.90;;;;;;5032376;28;20037;-83
2022/03/24 10:33:30;;;;;;;20.55;16.90;;;25.70;99.90;;;;;;5029703;28;20042;-83
2022/03/24 10:36:18;;;;;;;19.15;16.80;;;25.60;99.90;;;;;;5029664;28;20134;-83
2022/03/24 10:38:53;;;;;;;19.42;17.27;;;26.00;99.90;;;;;;5042072;28;20066;-83
2022/03/24 10:41:24;;;;;;;19.38;17.27;;;27.50;99.90;;;;;;5049518;28;20028;-82
2022/03/24 10:43:53;;;;;;;19.08;16.77;;;27.10;99.90;;;;;;5049296;28;20057;-83
2022/03/24 10:46:22;;;;;;;18.38;16.42;;;28.30;99.90;;;;;;5049486;28;20028;-83
2022/03/24 10:48:48;;;;;;;18.77;16.83;;;28.80;99.90;;;;;;5049156;28;20059;-84
2022/03/24 10:51:32;;;;;;;18.73;16.67;;;28.90;99.90;;;;;;5049231;28;20036;-84
2022/03/24 10:54:15;;;;;;;19.83;17.15;;;29.70;99.90;;;;;;5048475;28;20027;-84
2022/03/24 10:57:13;;;;;;;19.42;17.42;;;30.40;99.90;;;;;;5047423;28;20027;-83
2022/03/24 10:59:44;;;;;;;20.15;18.10;;;30.60;99.90;;;;;;5047530;28;20444;-84
2022/03/24 11:02:09;;;;;;;18.88;16.95;;;30.30;99.90;;;;;;5049740;28;20047;-84
2022/03/24 11:04:35;;;;;;;18.38;16.25;;;30.30;99.90;;;;;;5049362;28;20449;-84
2022/03/24 11:07:01;;;;;;;17.55;15.77;;;30.20;99.90;;;;;;5047263;28;20118;-84
2022/03/24 11:09:30;;;;;;;20.77;16.15;;;29.90;99.90;;;;;;5048959;28;20122;-84
2022/03/24 11:12:26;;;;;;;17.30;15.55;;;30.30;99.90;;;;;;5049166;28;20033;-84
2022/03/24 11:14:55;;;;;;;18.13;16.23;;;30.10;99.90;;;;;;5048467;28;20029;-83
2022/03/24 11:17:26;;;;;;;18.02;16.33;;;30.90;99.90;;;;;;5049255;28;20028;-84
2022/03/24 11:20:20;;;;;;;18.27;16.35;;;30.80;99.90;;;;;;5047512;28;20040;-84
2022/03/24 11:22:56;;;;;;;18.67;16.67;;;30.70;99.90;;;;;;5046836;28;20040;-84
2022/03/24 11:25:23;;;;;;;18.88;15.63;;;30.70;99.90;;;;;;5048908;28;20032;-84
2022/03/24 11:27:50;;;;;;;18.23;16.42;;;32.00;99.90;;;;;;5048445;28;20029;-83
2022/03/24 11:30:18;;;;;;;20.05;16.40;;;32.40;99.90;;;;;;5049616;28;20032;-84
2022/03/24 11:32:45;;;;;;;17.67;15.65;;;31.90;99.90;;;;;;5049972;28;20191;-84
2022/03/24 11:35:12;;;;;;;19.85;16.27;;;31.30;99.90;;;;;;5049512;28;20040;-84
2022/03/24 11:37:39;;;;;;;17.67;15.32;;;30.40;99.90;;;;;;5048716;28;20036;-83
2022/03/24 11:40:15;;;;;;;22.45;15.98;;;31.20;99.90;;;;;;5049429;28;20029;-84
2022/03/24 11:42:59;;;;;;;19.67;15.73;;;31.60;99.90;;;;;;5048573;28;20400;-84
2022/03/24 11:45:40;;;;;;;21.02;16.45;;;31.80;99.90;;;;;;5035172;28;20032;-84
2022/03/24 11:48:11;;;;;;;20.02;17.33;;;32.80;99.90;;;;;;5050951;28;20041;-84
2022/03/24 11:50:45;;;;;;;18.13;16.25;;;32.50;99.90;;;;;;5049971;28;20485;-84
2022/03/24 11:53:38;;;;;;;18.83;16.27;;;32.30;99.90;;;;;;5053295;28;20036;-84
2022/03/24 11:56:04;;;;;;;18.35;16.55;;;32.90;99.90;;;;;;5053004;28;20029;-84
2022/03/24 11:58:54;;;;;;;18.67;16.73;;;33.50;99.90;;;;;;5050806;28;20044;-83
2022/03/24 12:01:19;;;;;;;18.63;16.83;;;32.60;99.90;;;;;;5051583;28;20021;-83
2022/03/24 12:04:03;;;;;;;17.90;16.23;;;32.50;99.90;;;;;;5052021;28;20021;-84
2022/03/24 12:06:41;;;;;;;18.80;16.83;;;32.00;99.90;;;;;;5052413;28;20408;-84
2022/03/24 12:09:09;;;;;;;18.73;16.92;;;32.80;99.90;;;;;;5050534;28;20021;-84
2022/03/24 12:11:38;;;;;;;18.50;16.60;;;33.00;99.90;;;;;;5049639;28;20059;-84
2022/03/24 12:14:11;;;;;;;19.00;17.08;;;33.00;99.90;;;;;;5050598;28;20036;-84
2022/03/24 12:16:42;;;;;;;18.17;16.30;;;32.10;99.90;;;;;;5051942;28;20094;-84
2022/03/24 12:19:35;;;;;;;18.48;16.58;;;32.80;99.90;;;;;;5051531;28;20100;-84
2022/03/24 12:22:21;;;;;;;19.13;17.10;;;33.10;99.90;;;;;;5051856;28;20029;-84
2022/03/24 12:24:47;;;;;;;18.67;16.80;;;33.00;99.90;;;;;;5051201;28;20029;-84
2022/03/24 12:27:15;;;;;;;18.15;16.25;;;32.30;99.90;;;;;;5051587;28;20040;-84
2022/03/24 12:29:41;;;;;;;17.88;16.27;;;33.00;99.90;;;;;;5052438;28;20025;-84
2022/03/24 12:32:11;;;;;;;21.40;16.45;;;32.90;99.90;;;;;;5051606;28;20063;-84
2022/03/24 12:34:39;;;;;;;18.15;16.33;;;33.20;99.90;;;;;;5049258;28;20521;-84
2022/03/24 12:37:29;;;;;;;18.95;16.95;;;34.10;99.90;;;;;;5049917;28;20456;-84
2022/03/24 12:40:09;;;;;;;17.48;15.68;;;32.70;99.90;;;;;;5045279;28;20052;-84
2022/03/24 12:42:53;;;;;;;17.58;15.82;;;32.70;99.90;;;;;;5051627;28;20025;-84
2022/03/24 12:45:27;;;;;;;16.67;15.05;;;33.40;99.90;;;;;;5036905;28;20025;-84
2022/03/24 12:47:58;;;;;;;16.90;15.20;;;33.50;99.90;;;;;;5050933;28;20484;-84
2022/03/24 12:50:45;;;;;;;16.85;15.27;;;33.30;99.90;;;;;;5052053;28;20025;-84
2022/03/24 12:53:11;;;;;;;15.63;14.13;;;33.10;99.90;;;;;;5051987;28;20021;-84